createdAt,value
2023-01-20T00:04:41.941Z,-1.56
2023-01-20T00:09:35.470Z,-1.57
2023-01-20T00:14:29.151Z,-1.58
2023-01-20T00:19:24.525Z,-1.65
2023-01-20T00:24:17.973Z,-1.61
2023-01-20T00:29:11.915Z,-1.60
2023-01-20T00:34:05.529Z,-1.57
2023-01-20T00:39:02.241Z,-1.56
2023-01-20T00:43:55.644Z,-1.60
2023-01-20T00:48:48.997Z,-1.34
2023-01-20T00:53:42.630Z,-1.28
2023-01-20T00:58:37.487Z,-1.52
2023-01-20T01:03:31.343Z,-1.29
2023-01-20T01:08:24.654Z,-0.96
2023-01-20T01:13:18.109Z,-0.81
2023-01-20T01:44:18.349Z,-0.82
2023-01-20T02:02:17.216Z,-0.76
2023-01-20T02:07:19.607Z,-0.66
2023-01-20T02:12:17.908Z,-0.71
2023-01-20T02:17:24.118Z,-0.70
2023-01-20T02:22:34.823Z,-0.59
2023-01-20T02:28:03.265Z,-0.48
2023-01-20T02:33:06.111Z,-0.39
2023-01-20T02:38:15.953Z,-0.53
2023-01-20T02:43:19.324Z,-0.56
2023-01-20T02:48:25.526Z,-0.55
2023-01-20T02:53:23.603Z,-0.43
2023-01-20T02:58:25.024Z,-0.33
2023-01-20T03:03:27.742Z,-0.30
2023-01-20T03:08:25.399Z,-0.31
2023-01-20T03:13:24.893Z,-0.48
2023-01-20T03:18:19.624Z,-0.43
2023-01-20T03:23:13.203Z,-0.43
2023-01-20T03:28:06.777Z,-0.44
2023-01-20T03:33:01.969Z,-0.43
2023-01-20T03:44:46.429Z,-0.34
2023-01-20T03:49:50.077Z,-0.41
2023-01-20T03:54:52.046Z,-0.49
2023-01-20T03:59:52.233Z,-0.41
2023-01-20T04:04:50.063Z,-0.43
2023-01-20T04:09:51.034Z,-0.54
2023-01-20T04:14:46.011Z,-0.72
2023-01-20T04:19:39.576Z,-0.76
2023-01-20T04:24:42.342Z,-0.99
2023-01-20T04:29:35.821Z,-0.99
2023-01-20T04:34:30.932Z,-0.91
2023-01-20T04:39:24.321Z,-0.85
2023-01-20T04:44:17.831Z,-0.97
2023-01-20T04:56:33.292Z,-0.76
2023-01-20T05:01:26.817Z,-0.82
2023-01-20T05:06:20.337Z,-0.79
2023-01-20T05:11:13.794Z,-0.66
2023-01-20T05:35:41.960Z,-0.83
2023-01-20T05:40:35.523Z,-0.85
2023-01-20T05:45:29.430Z,-0.71
2023-01-20T05:50:22.863Z,-0.59
2023-01-20T05:55:18.203Z,-0.78
2023-01-20T06:00:14.120Z,-0.91
2023-01-20T06:05:08.980Z,-0.96
2023-01-20T06:10:02.693Z,-0.91
2023-01-20T06:14:57.565Z,-1.00
2023-01-20T06:19:50.879Z,-0.92
2023-01-20T06:24:44.248Z,-0.86
2023-01-20T06:29:37.685Z,-1.00
2023-01-20T06:34:32.544Z,-1.09
2023-01-20T06:39:26.080Z,-1.06
2023-01-20T06:44:24.687Z,-0.81
2023-01-20T07:02:22.458Z,-0.66
2023-01-20T07:13:47.148Z,-0.68
2023-01-20T07:18:42.192Z,-0.54
2023-01-20T07:23:35.633Z,-0.93
2023-01-20T07:28:31.110Z,-0.88
2023-01-20T07:33:24.704Z,-0.69
2023-01-20T07:38:19.524Z,-0.71
2023-01-20T07:43:13.044Z,-0.61
2023-01-20T07:48:08.011Z,-0.49
2023-01-20T07:53:01.530Z,-0.48
2023-01-20T07:57:57.314Z,-0.57
2023-01-20T08:02:59.866Z,-0.52
2023-01-20T08:07:53.894Z,-0.62
2023-01-20T08:12:47.253Z,-0.40
2023-01-20T08:17:41.998Z,-0.40
2023-01-20T08:22:36.348Z,-0.52
2023-01-20T08:27:30.027Z,-0.63
2023-01-20T08:32:23.620Z,0.06
2023-01-20T08:37:18.601Z,0.21
2023-01-20T08:42:12.000Z,0.24
2023-01-20T08:47:05.472Z,-0.05
2023-01-20T08:52:27.568Z,-0.30
2023-01-20T08:57:22.347Z,0.09
2023-01-20T09:02:16.069Z,0.08
2023-01-20T09:07:13.178Z,0.11
2023-01-20T09:12:07.519Z,0.44
2023-01-20T09:17:02.868Z,0.38
2023-01-20T09:21:56.722Z,0.51
2023-01-20T09:26:51.019Z,0.75
2023-01-20T09:31:50.213Z,0.59
2023-01-20T09:36:45.137Z,0.93
2023-01-20T09:41:57.566Z,0.79
2023-01-20T09:47:22.645Z,0.77
2023-01-20T09:52:47.249Z,1.18
2023-01-20T09:57:50.033Z,1.29
2023-01-20T10:02:52.256Z,1.48
2023-01-20T10:07:56.758Z,1.59
2023-01-20T10:12:58.884Z,1.64
2023-01-20T10:17:58.866Z,1.56
2023-01-20T10:22:59.505Z,1.52
2023-01-20T10:27:57.531Z,1.41
2023-01-20T10:32:59.909Z,1.30
2023-01-20T10:37:55.906Z,1.35
2023-01-20T10:42:54.510Z,1.23
2023-01-20T10:48:03.880Z,1.40
2023-01-20T10:53:41.156Z,1.21
2023-01-20T10:58:39.057Z,1.16
2023-01-20T11:03:38.328Z,1.07
2023-01-20T11:08:34.999Z,1.36
2023-01-20T11:13:28.477Z,1.55
2023-01-20T11:18:28.074Z,1.65
2023-01-20T11:23:26.843Z,1.46
2023-01-20T11:28:22.125Z,1.64
2023-01-20T11:33:22.582Z,1.45
2023-01-20T11:38:25.137Z,1.45
2023-01-20T11:43:32.973Z,1.62
2023-01-20T11:48:26.371Z,1.54
2023-01-20T11:53:26.604Z,1.63
2023-01-20T11:58:23.233Z,1.73
2023-01-20T12:04:23.342Z,1.73
2023-01-20T12:09:22.396Z,1.69
2023-01-20T12:14:28.665Z,1.58
2023-01-20T12:19:39.187Z,1.58
2023-01-20T12:25:02.127Z,1.43
2023-01-20T12:30:02.813Z,1.42
2023-01-20T12:34:57.693Z,1.62
2023-01-20T12:40:12.076Z,1.26
2023-01-20T12:45:22.518Z,1.23
2023-01-20T12:50:32.937Z,1.14
2023-01-20T13:00:52.291Z,1.13
2023-01-20T13:06:28.168Z,1.01
2023-01-20T13:16:33.344Z,1.01
2023-01-20T13:26:33.958Z,0.97
2023-01-20T13:31:43.315Z,1.00
2023-01-20T13:36:36.818Z,0.90
2023-01-20T13:41:53.029Z,1.00
2023-01-20T13:46:50.968Z,1.05
2023-01-20T13:51:47.107Z,1.16
2023-01-20T13:56:40.554Z,1.11
2023-01-20T14:01:37.280Z,1.11
2023-01-20T14:06:33.235Z,1.15
2023-01-20T14:11:29.269Z,1.21
2023-01-20T14:16:27.764Z,1.40
2023-01-20T14:21:25.708Z,1.55
2023-01-20T14:26:24.952Z,1.44
2023-01-20T14:31:37.678Z,1.28
2023-01-20T14:36:32.600Z,1.13
2023-01-20T14:51:41.459Z,0.94
2023-01-20T14:56:34.946Z,1.00
2023-01-20T15:01:28.449Z,0.89
2023-01-20T15:06:25.451Z,0.79
2023-01-20T15:11:28.991Z,0.75
2023-01-20T15:16:28.472Z,0.72
2023-01-20T15:21:28.840Z,0.61
2023-01-20T15:26:30.995Z,0.48
2023-01-20T15:31:25.110Z,0.42
2023-01-20T15:36:29.161Z,0.42
2023-01-20T15:41:24.363Z,0.47
2023-01-20T15:46:20.134Z,0.54
2023-01-20T15:51:17.541Z,0.60
2023-01-20T15:56:22.762Z,0.51
2023-01-20T16:01:23.900Z,0.65
2023-01-20T22:15:46.227Z,-0.13
2023-01-20T22:20:39.595Z,-0.22
2023-01-20T22:25:34.610Z,-0.26
2023-01-20T22:30:28.077Z,-0.27
2023-01-20T22:35:22.865Z,-0.11
2023-01-20T22:40:16.751Z,-0.17
2023-01-20T22:45:11.957Z,-0.07
2023-01-20T22:50:07.940Z,-0.10
2023-01-20T22:55:02.688Z,-0.29
2023-01-20T22:59:56.102Z,-0.66
2023-01-20T23:04:49.392Z,-0.85
2023-01-20T23:09:42.685Z,-0.56
2023-01-20T23:14:55.250Z,-0.74
2023-01-20T23:26:20.441Z,-0.63
2023-01-20T23:31:17.831Z,-0.56
2023-01-20T23:36:15.687Z,-0.64
2023-01-20T23:41:09.059Z,-0.67
2023-01-20T23:46:06.024Z,-0.76
2023-01-20T23:51:01.984Z,-0.64
2023-01-20T23:56:01.454Z,-0.80
